sensor_id;sensor_type;location;lat;lon;timestamp;temperature;humidity
24252;DHT22;12380;51.118;4.176;2022-10-16T00:01:44;13.60;99.90
24252;DHT22;12380;51.118;4.176;2022-10-16T00:04:10;13.70;99.90
24252;DHT22;12380;51.118;4.176;2022-10-16T00:06:37;13.90;99.90
24252;DHT22;12380;51.118;4.176;2022-10-16T00:09:06;13.80;99.90
24252;DHT22;12380;51.118;4.176;2022-10-16T00:11:33;13.80;99.90
24252;DHT22;12380;51.118;4.176;2022-10-16T00:13:59;13.80;99.90
24252;DHT22;12380;51.118;4.176;2022-10-16T00:16:27;13.80;99.90
24252;DHT22;12380;51.118;4.176;2022-10-16T00:18:54;13.90;99.90
24252;DHT22;12380;51.118;4.176;2022-10-16T00:21:20;13.80;99.90
24252;DHT22;12380;51.118;4.176;2022-10-16T00:23:46;13.70;99.90
24252;DHT22;12380;51.118;4.176;2022-10-16T00:26:15;13.80;99.90
24252;DHT22;12380;51.118;4.176;2022-10-16T00:28:41;13.80;99.90
24252;DHT22;12380;51.118;4.176;2022-10-16T00:31:10;13.80;99.90
24252;DHT22;12380;51.118;4.176;2022-10-16T00:33:39;13.80;99.90
24252;DHT22;12380;51.118;4.176;2022-10-16T00:36:09;13.80;99.90
24252;DHT22;12380;51.118;4.176;2022-10-16T00:38:35;13.80;99.90
24252;DHT22;12380;51.118;4.176;2022-10-16T00:41:01;13.60;99.90
24252;DHT22;12380;51.118;4.176;2022-10-16T00:43:40;13.60;99.90
24252;DHT22;12380;51.118;4.176;2022-10-16T00:46:15;13.60;99.90
24252;DHT22;12380;51.118;4.176;2022-10-16T00:48:42;13.60;99.90
24252;DHT22;12380;51.118;4.176;2022-10-16T00:51:10;13.50;99.90
24252;DHT22;12380;51.118;4.176;2022-10-16T00:53:38;13.50;99.90
24252;DHT22;12380;51.118;4.176;2022-10-16T00:56:03;13.50;99.90
24252;DHT22;12380;51.118;4.176;2022-10-16T00:58:29;13.50;99.90
24252;DHT22;12380;51.118;4.176;2022-10-16T01:00:55;13.60;99.90
24252;DHT22;12380;51.118;4.176;2022-10-16T01:03:26;13.50;99.90
24252;DHT22;12380;51.118;4.176;2022-10-16T01:06:01;13.50;99.90
24252;DHT22;12380;51.118;4.176;2022-10-16T01:08:42;13.40;99.90
24252;DHT22;12380;51.118;4.176;2022-10-16T01:11:22;13.50;99.90
24252;DHT22;12380;51.118;4.176;2022-10-16T01:13:50;13.60;99.90
24252;DHT22;12380;51.118;4.176;2022-10-16T01:16:24;13.70;99.90
24252;DHT22;12380;51.118;4.176;2022-10-16T01:19:01;13.70;99.90
24252;DHT22;12380;51.118;4.176;2022-10-16T01:21:35;13.60;99.90
24252;DHT22;12380;51.118;4.176;2022-10-16T01:29:26;13.50;99.90
24252;DHT22;12380;51.118;4.176;2022-10-16T01:31:57;13.40;99.90
24252;DHT22;12380;51.118;4.176;2022-10-16T01:34:35;13.40;99.90
24252;DHT22;12380;51.118;4.176;2022-10-16T01:37:07;13.50;99.90
24252;DHT22;12380;51.118;4.176;2022-10-16T01:39:35;13.40;99.90
24252;DHT22;12380;51.118;4.176;2022-10-16T01:42:06;13.50;99.90
24252;DHT22;12380;51.118;4.176;2022-10-16T01:44:33;13.50;99.90
24252;DHT22;12380;51.118;4.176;2022-10-16T01:47:01;13.40;99.90
24252;DHT22;12380;51.118;4.176;2022-10-16T01:49:28;13.30;99.90
24252;DHT22;12380;51.118;4.176;2022-10-16T01:51:55;13.30;99.90
24252;DHT22;12380;51.118;4.176;2022-10-16T01:54:22;13.30;99.90
24252;DHT22;12380;51.118;4.176;2022-10-16T01:56:48;13.30;99.90
24252;DHT22;12380;51.118;4.176;2022-10-16T01:59:16;13.30;99.90
24252;DHT22;12380;51.118;4.176;2022-10-16T02:01:50;13.20;99.90
24252;DHT22;12380;51.118;4.176;2022-10-16T02:04:19;13.30;99.90
24252;DHT22;12380;51.118;4.176;2022-10-16T02:06:45;13.20;99.90
24252;DHT22;12380;51.118;4.176;2022-10-16T02:09:11;13.20;99.90
24252;DHT22;12380;51.118;4.176;2022-10-16T02:11:37;13.10;99.90
24252;DHT22;12380;51.118;4.176;2022-10-16T02:14:06;13.20;99.90
24252;DHT22;12380;51.118;4.176;2022-10-16T02:16:32;13.10;99.90
24252;DHT22;12380;51.118;4.176;2022-10-16T02:18:59;13.30;99.90
24252;DHT22;12380;51.118;4.176;2022-10-16T02:26:26;13.20;99.90
24252;DHT22;12380;51.118;4.176;2022-10-16T02:28:57;13.10;99.90
24252;DHT22;12380;51.118;4.176;2022-10-16T02:31:28;13.10;99.90
24252;DHT22;12380;51.118;4.176;2022-10-16T02:33:58;13.00;99.90
24252;DHT22;12380;51.118;4.176;2022-10-16T02:36:27;13.00;99.90
24252;DHT22;12380;51.118;4.176;2022-10-16T02:38:53;13.00;99.90
24252;DHT22;12380;51.118;4.176;2022-10-16T02:41:20;13.00;99.90
24252;DHT22;12380;51.118;4.176;2022-10-16T02:43:46;13.00;99.90
24252;DHT22;12380;51.118;4.176;2022-10-16T02:46:12;13.10;99.90
24252;DHT22;12380;51.118;4.176;2022-10-16T02:48:38;13.10;99.90
24252;DHT22;12380;51.118;4.176;2022-10-16T02:51:04;13.00;99.90
24252;DHT22;12380;51.118;4.176;2022-10-16T02:53:30;13.10;99.90
24252;DHT22;12380;51.118;4.176;2022-10-16T02:55:55;13.00;99.90
24252;DHT22;12380;51.118;4.176;2022-10-16T02:58:21;13.20;99.90
24252;DHT22;12380;51.118;4.176;2022-10-16T03:00:47;13.20;99.90
24252;DHT22;12380;51.118;4.176;2022-10-16T03:03:13;13.00;99.90
24252;DHT22;12380;51.118;4.176;2022-10-16T03:05:38;12.90;99.90
24252;DHT22;12380;51.118;4.176;2022-10-16T03:08:04;12.90;99.90
24252;DHT22;12380;51.118;4.176;2022-10-16T03:10:30;13.00;99.90
24252;DHT22;12380;51.118;4.176;2022-10-16T03:12:57;13.00;99.90
24252;DHT22;12380;51.118;4.176;2022-10-16T03:15:23;12.90;99.90
24252;DHT22;12380;51.118;4.176;2022-10-16T03:17:49;13.00;99.90
24252;DHT22;12380;51.118;4.176;2022-10-16T03:20:17;13.00;99.90
24252;DHT22;12380;51.118;4.176;2022-10-16T03:22:43;13.00;99.90
24252;DHT22;12380;51.118;4.176;2022-10-16T03:25:09;12.90;99.90
24252;DHT22;12380;51.118;4.176;2022-10-16T03:27:34;13.00;99.90
24252;DHT22;12380;51.118;4.176;2022-10-16T03:30:03;12.90;99.90
24252;DHT22;12380;51.118;4.176;2022-10-16T03:32:29;13.00;99.90
24252;DHT22;12380;51.118;4.176;2022-10-16T03:34:57;13.20;99.90
24252;DHT22;12380;51.118;4.176;2022-10-16T03:37:23;13.30;99.90
24252;DHT22;12380;51.118;4.176;2022-10-16T03:39:49;13.30;99.90
24252;DHT22;12380;51.118;4.176;2022-10-16T03:42:14;13.30;99.90
24252;DHT22;12380;51.118;4.176;2022-10-16T03:44:40;13.20;99.90
24252;DHT22;12380;51.118;4.176;2022-10-16T03:47:07;13.20;99.90
24252;DHT22;12380;51.118;4.176;2022-10-16T03:49:33;13.20;99.90
24252;DHT22;12380;51.118;4.176;2022-10-16T03:51:59;13.10;99.90
24252;DHT22;12380;51.118;4.176;2022-10-16T03:54:28;13.10;99.90
24252;DHT22;12380;51.118;4.176;2022-10-16T03:56:53;13.20;99.90
24252;DHT22;12380;51.118;4.176;2022-10-16T03:59:20;13.30;99.90
24252;DHT22;12380;51.118;4.176;2022-10-16T04:01:46;13.20;99.90
24252;DHT22;12380;51.118;4.176;2022-10-16T04:04:11;13.20;99.90
24252;DHT22;12380;51.118;4.176;2022-10-16T04:06:41;13.30;99.90
24252;DHT22;12380;51.118;4.176;2022-10-16T04:09:07;13.30;99.90
24252;DHT22;12380;51.118;4.176;2022-10-16T04:11:33;13.20;99.90
24252;DHT22;12380;51.118;4.176;2022-10-16T04:13:59;13.10;99.90
24252;DHT22;12380;51.118;4.176;2022-10-16T04:16:25;13.10;99.90
24252;DHT22;12380;51.118;4.176;2022-10-16T04:18:53;13.10;99.90
24252;DHT22;12380;51.118;4.176;2022-10-16T04:21:19;13.20;99.90
24252;DHT22;12380;51.118;4.176;2022-10-16T04:23:45;13.10;99.90
24252;DHT22;12380;51.118;4.176;2022-10-16T04:26:11;13.20;99.90
24252;DHT22;12380;51.118;4.176;2022-10-16T04:28:37;13.10;99.90
24252;DHT22;12380;51.118;4.176;2022-10-16T04:31:04;13.20;99.90
24252;DHT22;12380;51.118;4.176;2022-10-16T04:33:30;13.20;99.90
24252;DHT22;12380;51.118;4.176;2022-10-16T04:35:56;13.10;99.90
24252;DHT22;12380;51.118;4.176;2022-10-16T04:38:22;13.20;99.90
24252;DHT22;12380;51.118;4.176;2022-10-16T04:40:49;13.10;99.90
24252;DHT22;12380;51.118;4.176;2022-10-16T04:43:14;13.10;99.90
24252;DHT22;12380;51.118;4.176;2022-10-16T04:45:44;13.10;99.90
24252;DHT22;12380;51.118;4.176;2022-10-16T04:48:10;13.10;99.90
24252;DHT22;12380;51.118;4.176;2022-10-16T04:50:35;13.10;99.90
24252;DHT22;12380;51.118;4.176;2022-10-16T04:53:01;13.00;99.90
24252;DHT22;12380;51.118;4.176;2022-10-16T04:55:27;13.10;99.90
24252;DHT22;12380;51.118;4.176;2022-10-16T04:57:52;13.00;99.90
24252;DHT22;12380;51.118;4.176;2022-10-16T05:00:18;13.10;99.90
24252;DHT22;12380;51.118;4.176;2022-10-16T05:02:49;13.00;99.90
24252;DHT22;12380;51.118;4.176;2022-10-16T05:05:15;13.00;99.90
24252;DHT22;12380;51.118;4.176;2022-10-16T05:07:45;13.00;99.90
24252;DHT22;12380;51.118;4.176;2022-10-16T05:10:10;12.90;99.90
24252;DHT22;12380;51.118;4.176;2022-10-16T05:12:36;12.90;99.90
24252;DHT22;12380;51.118;4.176;2022-10-16T05:15:02;12.90;99.90
24252;DHT22;12380;51.118;4.176;2022-10-16T05:17:28;12.90;99.90
24252;DHT22;12380;51.118;4.176;2022-10-16T05:19:54;12.90;99.90
24252;DHT22;12380;51.118;4.176;2022-10-16T05:22:19;12.90;99.90
24252;DHT22;12380;51.118;4.176;2022-10-16T05:24:47;12.90;99.90
24252;DHT22;12380;51.118;4.176;2022-10-16T05:27:16;12.90;99.90
24252;DHT22;12380;51.118;4.176;2022-10-16T05:29:48;12.90;99.90
24252;DHT22;12380;51.118;4.176;2022-10-16T05:32:14;12.90;99.90
24252;DHT22;12380;51.118;4.176;2022-10-16T05:34:40;12.80;99.90
24252;DHT22;12380;51.118;4.176;2022-10-16T05:37:06;12.70;99.90
24252;DHT22;12380;51.118;4.176;2022-10-16T05:39:32;12.70;99.90
24252;DHT22;12380;51.118;4.176;2022-10-16T05:41:57;12.80;99.90
24252;DHT22;12380;51.118;4.176;2022-10-16T05:44:23;12.80;99.90
24252;DHT22;12380;51.118;4.176;2022-10-16T05:46:49;12.70;99.90
24252;DHT22;12380;51.118;4.176;2022-10-16T05:49:14;12.70;99.90
24252;DHT22;12380;51.118;4.176;2022-10-16T05:51:40;12.70;99.90
24252;DHT22;12380;51.118;4.176;2022-10-16T05:54:06;12.80;99.90
24252;DHT22;12380;51.118;4.176;2022-10-16T05:56:32;12.90;99.90
24252;DHT22;12380;51.118;4.176;2022-10-16T05:58:59;12.90;99.90
24252;DHT22;12380;51.118;4.176;2022-10-16T06:01:26;12.90;99.90
24252;DHT22;12380;51.118;4.176;2022-10-16T06:03:51;12.90;99.90
24252;DHT22;12380;51.118;4.176;2022-10-16T06:06:18;13.10;99.90
24252;DHT22;12380;51.118;4.176;2022-10-16T06:08:45;13.10;99.90
24252;DHT22;12380;51.118;4.176;2022-10-16T06:11:12;13.20;99.90
24252;DHT22;12380;51.118;4.176;2022-10-16T06:13:38;13.20;99.90
24252;DHT22;12380;51.118;4.176;2022-10-16T06:16:06;13.20;99.90
24252;DHT22;12380;51.118;4.176;2022-10-16T06:18:32;13.20;99.90
24252;DHT22;12380;51.118;4.176;2022-10-16T06:20:58;13.20;99.90
24252;DHT22;12380;51.118;4.176;2022-10-16T06:23:28;13.10;99.90
24252;DHT22;12380;51.118;4.176;2022-10-16T06:25:53;13.10;99.90
24252;DHT22;12380;51.118;4.176;2022-10-16T06:28:19;13.20;99.90
24252;DHT22;12380;51.118;4.176;2022-10-16T06:30:44;13.10;99.90
24252;DHT22;12380;51.118;4.176;2022-10-16T06:33:11;13.20;99.90
24252;DHT22;12380;51.118;4.176;2022-10-16T06:35:37;13.10;99.90
24252;DHT22;12380;51.118;4.176;2022-10-16T06:38:02;13.20;99.90
24252;DHT22;12380;51.118;4.176;2022-10-16T06:40:31;13.20;99.90
24252;DHT22;12380;51.118;4.176;2022-10-16T06:42:57;13.20;99.90
24252;DHT22;12380;51.118;4.176;2022-10-16T06:45:23;13.20;99.90
24252;DHT22;12380;51.118;4.176;2022-10-16T06:47:48;13.20;99.90
24252;DHT22;12380;51.118;4.176;2022-10-16T06:50:14;13.20;99.90
24252;DHT22;12380;51.118;4.176;2022-10-16T06:52:39;13.10;99.90
24252;DHT22;12380;51.118;4.176;2022-10-16T06:55:05;13.10;99.90
24252;DHT22;12380;51.118;4.176;2022-10-16T06:57:31;13.20;99.90
24252;DHT22;12380;51.118;4.176;2022-10-16T06:59:56;13.30;99.90
24252;DHT22;12380;51.118;4.176;2022-10-16T07:02:24;13.40;99.90
24252;DHT22;12380;51.118;4.176;2022-10-16T07:04:50;13.40;99.90
24252;DHT22;12380;51.118;4.176;2022-10-16T07:07:15;13.40;99.90
24252;DHT22;12380;51.118;4.176;2022-10-16T07:09:41;13.40;99.90
24252;DHT22;12380;51.118;4.176;2022-10-16T07:12:07;13.50;99.90
24252;DHT22;12380;51.118;4.176;2022-10-16T07:14:33;13.40;99.90
24252;DHT22;12380;51.118;4.176;2022-10-16T07:16:59;13.60;99.90
24252;DHT22;12380;51.118;4.176;2022-10-16T07:19:25;13.50;99.90
24252;DHT22;12380;51.118;4.176;2022-10-16T07:21:51;13.60;99.90
24252;DHT22;12380;51.118;4.176;2022-10-16T07:24:18;13.60;99.90
24252;DHT22;12380;51.118;4.176;2022-10-16T07:26:44;13.70;99.90
24252;DHT22;12380;51.118;4.176;2022-10-16T07:29:12;13.80;99.90
24252;DHT22;12380;51.118;4.176;2022-10-16T07:31:38;13.80;99.90
24252;DHT22;12380;51.118;4.176;2022-10-16T07:34:05;13.80;99.90
24252;DHT22;12380;51.118;4.176;2022-10-16T07:36:30;13.80;99.90
24252;DHT22;12380;51.118;4.176;2022-10-16T07:38:57;13.90;99.90
24252;DHT22;12380;51.118;4.176;2022-10-16T07:41:22;14.10;99.90
24252;DHT22;12380;51.118;4.176;2022-10-16T07:43:49;14.20;99.90
24252;DHT22;12380;51.118;4.176;2022-10-16T07:46:16;14.30;99.90
24252;DHT22;12380;51.118;4.176;2022-10-16T07:48:41;14.30;99.90
24252;DHT22;12380;51.118;4.176;2022-10-16T07:51:11;14.40;99.90
24252;DHT22;12380;51.118;4.176;2022-10-16T07:53:37;14.40;99.90
24252;DHT22;12380;51.118;4.176;2022-10-16T07:56:04;14.50;99.90
24252;DHT22;12380;51.118;4.176;2022-10-16T07:58:31;14.50;99.90
24252;DHT22;12380;51.118;4.176;2022-10-16T08:00:57;14.70;99.90
24252;DHT22;12380;51.118;4.176;2022-10-16T08:03:26;14.70;99.90
24252;DHT22;12380;51.118;4.176;2022-10-16T08:05:52;14.80;99.90
24252;DHT22;12380;51.118;4.176;2022-10-16T08:08:18;14.90;99.90
24252;DHT22;12380;51.118;4.176;2022-10-16T08:10:44;14.90;99.90
24252;DHT22;12380;51.118;4.176;2022-10-16T08:13:12;15.00;99.90
24252;DHT22;12380;51.118;4.176;2022-10-16T08:15:40;15.10;99.90
24252;DHT22;12380;51.118;4.176;2022-10-16T08:18:06;15.10;99.90
24252;DHT22;12380;51.118;4.176;2022-10-16T08:20:32;15.30;99.90
24252;DHT22;12380;51.118;4.176;2022-10-16T08:22:59;15.50;99.90
24252;DHT22;12380;51.118;4.176;2022-10-16T08:25:25;15.70;99.90
24252;DHT22;12380;51.118;4.176;2022-10-16T08:27:51;15.90;99.90
24252;DHT22;12380;51.118;4.176;2022-10-16T08:30:18;16.30;99.90
24252;DHT22;12380;51.118;4.176;2022-10-16T08:32:44;16.80;99.90
24252;DHT22;12380;51.118;4.176;2022-10-16T08:35:11;17.30;99.90
24252;DHT22;12380;51.118;4.176;2022-10-16T08:37:37;17.70;99.90
24252;DHT22;12380;51.118;4.176;2022-10-16T08:40:04;17.80;99.90
24252;DHT22;12380;51.118;4.176;2022-10-16T08:47:58;19.10;99.90
24252;DHT22;12380;51.118;4.176;2022-10-16T08:50:29;19.60;99.90
24252;DHT22;12380;51.118;4.176;2022-10-16T08:52:56;19.90;99.90
24252;DHT22;12380;51.118;4.176;2022-10-16T08:55:31;19.60;99.90
24252;DHT22;12380;51.118;4.176;2022-10-16T08:57:58;19.40;99.90
24252;DHT22;12380;51.118;4.176;2022-10-16T09:00:24;19.30;99.90
24252;DHT22;12380;51.118;4.176;2022-10-16T09:03:03;19.60;99.90
24252;DHT22;12380;51.118;4.176;2022-10-16T09:08:06;19.60;99.90
24252;DHT22;12380;51.118;4.176;2022-10-16T09:15:55;21.10;99.90
24252;DHT22;12380;51.118;4.176;2022-10-16T09:18:26;21.30;99.90
24252;DHT22;12380;51.118;4.176;2022-10-16T09:23:38;21.60;99.90
24252;DHT22;12380;51.118;4.176;2022-10-16T09:26:05;21.70;99.90
24252;DHT22;12380;51.118;4.176;2022-10-16T09:28:32;21.50;99.90
24252;DHT22;12380;51.118;4.176;2022-10-16T09:30:57;21.90;99.90
24252;DHT22;12380;51.118;4.176;2022-10-16T09:33:24;21.80;99.90
24252;DHT22;12380;51.118;4.176;2022-10-16T09:35:51;22.30;99.90
24252;DHT22;12380;51.118;4.176;2022-10-16T09:40:50;22.90;99.90
24252;DHT22;12380;51.118;4.176;2022-10-16T09:45:53;23.10;99.90
24252;DHT22;12380;51.118;4.176;2022-10-16T09:48:18;22.80;99.90
24252;DHT22;12380;51.118;4.176;2022-10-16T09:50:54;22.10;99.90
24252;DHT22;12380;51.118;4.176;2022-10-16T09:53:20;21.30;99.90
24252;DHT22;12380;51.118;4.176;2022-10-16T09:55:48;21.50;99.90
24252;DHT22;12380;51.118;4.176;2022-10-16T09:58:16;21.70;99.90
24252;DHT22;12380;51.118;4.176;2022-10-16T10:00:42;21.60;99.90
24252;DHT22;12380;51.118;4.176;2022-10-16T10:03:19;21.70;99.90
24252;DHT22;12380;51.118;4.176;2022-10-16T10:05:51;21.10;99.90
24252;DHT22;12380;51.118;4.176;2022-10-16T10:08:18;21.50;99.90
24252;DHT22;12380;51.118;4.176;2022-10-16T10:10:44;20.60;99.90
24252;DHT22;12380;51.118;4.176;2022-10-16T10:13:19;20.50;99.90
24252;DHT22;12380;51.118;4.176;2022-10-16T10:15:46;20.30;99.90
24252;DHT22;12380;51.118;4.176;2022-10-16T10:18:16;20.10;99.90
24252;DHT22;12380;51.118;4.176;2022-10-16T10:20:43;20.60;99.90
24252;DHT22;12380;51.118;4.176;2022-10-16T10:23:22;20.70;99.90
24252;DHT22;12380;51.118;4.176;2022-10-16T10:26:10;20.20;99.90
24252;DHT22;12380;51.118;4.176;2022-10-16T10:36:39;21.10;99.90
24252;DHT22;12380;51.118;4.176;2022-10-16T10:39:13;21.80;99.90
24252;DHT22;12380;51.118;4.176;2022-10-16T10:45:11;21.70;99.90
24252;DHT22;12380;51.118;4.176;2022-10-16T10:47:17;21.60;99.90
24252;DHT22;12380;51.118;4.176;2022-10-16T10:55:17;21.20;99.90
24252;DHT22;12380;51.118;4.176;2022-10-16T11:02:42;22.50;99.90
24252;DHT22;12380;51.118;4.176;2022-10-16T11:05:19;22.60;99.90
24252;DHT22;12380;51.118;4.176;2022-10-16T11:07:48;23.10;99.90
24252;DHT22;12380;51.118;4.176;2022-10-16T11:10:20;23.10;99.90
24252;DHT22;12380;51.118;4.176;2022-10-16T11:12:48;23.20;99.90
24252;DHT22;12380;51.118;4.176;2022-10-16T11:15:29;22.50;99.90
24252;DHT22;12380;51.118;4.176;2022-10-16T11:18:06;22.40;99.90
24252;DHT22;12380;51.118;4.176;2022-10-16T11:23:30;22.30;99.90
24252;DHT22;12380;51.118;4.176;2022-10-16T11:25:57;22.50;99.90
24252;DHT22;12380;51.118;4.176;2022-10-16T11:28:37;22.00;99.90
24252;DHT22;12380;51.118;4.176;2022-10-16T11:36:16;21.20;99.90
24252;DHT22;12380;51.118;4.176;2022-10-16T11:41:18;21.50;99.90
24252;DHT22;12380;51.118;4.176;2022-10-16T11:43:52;21.90;99.90
24252;DHT22;12380;51.118;4.176;2022-10-16T11:46:24;21.90;99.90
24252;DHT22;12380;51.118;4.176;2022-10-16T11:48:54;22.00;99.90
24252;DHT22;12380;51.118;4.176;2022-10-16T11:51:31;22.30;99.90
24252;DHT22;12380;51.118;4.176;2022-10-16T11:56:27;21.60;99.90
24252;DHT22;12380;51.118;4.176;2022-10-16T12:07:24;21.80;99.90
24252;DHT22;12380;51.118;4.176;2022-10-16T12:09:25;22.40;99.90
24252;DHT22;12380;51.118;4.176;2022-10-16T12:11:51;23.00;99.90
24252;DHT22;12380;51.118;4.176;2022-10-16T12:14:18;23.50;99.90
24252;DHT22;12380;51.118;4.176;2022-10-16T12:16:53;24.20;99.90
24252;DHT22;12380;51.118;4.176;2022-10-16T12:19:20;24.30;99.90
24252;DHT22;12380;51.118;4.176;2022-10-16T12:21:45;23.20;99.90
24252;DHT22;12380;51.118;4.176;2022-10-16T12:26:56;22.40;99.90
24252;DHT22;12380;51.118;4.176;2022-10-16T12:32:00;22.60;99.90
24252;DHT22;12380;51.118;4.176;2022-10-16T12:34:43;22.60;99.90
24252;DHT22;12380;51.118;4.176;2022-10-16T12:37:10;23.20;99.90
24252;DHT22;12380;51.118;4.176;2022-10-16T12:39:37;23.20;99.90
24252;DHT22;12380;51.118;4.176;2022-10-16T12:42:04;22.70;99.90
24252;DHT22;12380;51.118;4.176;2022-10-16T12:44:34;22.10;99.90
24252;DHT22;12380;51.118;4.176;2022-10-16T12:47:02;22.10;99.90
24252;DHT22;12380;51.118;4.176;2022-10-16T12:51:54;23.00;99.90
24252;DHT22;12380;51.118;4.176;2022-10-16T12:54:26;23.10;99.90
24252;DHT22;12380;51.118;4.176;2022-10-16T13:02:13;22.90;99.90
24252;DHT22;12380;51.118;4.176;2022-10-16T13:12:26;22.90;99.90
24252;DHT22;12380;51.118;4.176;2022-10-16T13:22:39;22.30;99.90
24252;DHT22;12380;51.118;4.176;2022-10-16T13:27:56;21.00;99.90
24252;DHT22;12380;51.118;4.176;2022-10-16T13:30:26;20.60;99.90
24252;DHT22;12380;51.118;4.176;2022-10-16T13:32:58;20.10;99.90
24252;DHT22;12380;51.118;4.176;2022-10-16T13:35:26;19.90;99.90
24252;DHT22;12380;51.118;4.176;2022-10-16T13:38:02;20.20;99.90
24252;DHT22;12380;51.118;4.176;2022-10-16T13:40:28;20.80;99.90
24252;DHT22;12380;51.118;4.176;2022-10-16T13:42:53;21.10;99.90
24252;DHT22;12380;51.118;4.176;2022-10-16T13:45:21;21.00;99.90
24252;DHT22;12380;51.118;4.176;2022-10-16T13:47:46;20.90;99.90
24252;DHT22;12380;51.118;4.176;2022-10-16T13:50:13;20.70;99.90
24252;DHT22;12380;51.118;4.176;2022-10-16T13:52:39;20.60;99.90
24252;DHT22;12380;51.118;4.176;2022-10-16T13:55:12;20.20;99.90
24252;DHT22;12380;51.118;4.176;2022-10-16T13:57:38;20.10;99.90
24252;DHT22;12380;51.118;4.176;2022-10-16T14:00:16;20.00;99.90
24252;DHT22;12380;51.118;4.176;2022-10-16T14:02:42;20.00;99.90
24252;DHT22;12380;51.118;4.176;2022-10-16T14:05:10;19.70;99.90
24252;DHT22;12380;51.118;4.176;2022-10-16T14:07:36;19.70;99.90
24252;DHT22;12380;51.118;4.176;2022-10-16T14:10:04;19.60;99.90
24252;DHT22;12380;51.118;4.176;2022-10-16T14:12:30;19.90;99.90
24252;DHT22;12380;51.118;4.176;2022-10-16T14:14:57;20.40;99.90
24252;DHT22;12380;51.118;4.176;2022-10-16T14:17:26;20.50;99.90
24252;DHT22;12380;51.118;4.176;2022-10-16T14:19:54;20.50;99.90
24252;DHT22;12380;51.118;4.176;2022-10-16T14:24:50;20.40;99.90
24252;DHT22;12380;51.118;4.176;2022-10-16T14:27:29;20.20;99.90
24252;DHT22;12380;51.118;4.176;2022-10-16T14:32:33;20.70;99.90
24252;DHT22;12380;51.118;4.176;2022-10-16T14:34:58;20.60;99.90
24252;DHT22;12380;51.118;4.176;2022-10-16T14:37:28;20.70;99.90
24252;DHT22;12380;51.118;4.176;2022-10-16T14:39:54;20.50;99.90
24252;DHT22;12380;51.118;4.176;2022-10-16T14:42:22;20.40;99.90
24252;DHT22;12380;51.118;4.176;2022-10-16T14:44:50;20.00;99.90
24252;DHT22;12380;51.118;4.176;2022-10-16T14:47:18;20.00;99.90
24252;DHT22;12380;51.118;4.176;2022-10-16T14:49:51;19.90;99.90
24252;DHT22;12380;51.118;4.176;2022-10-16T14:52:20;19.90;99.90
24252;DHT22;12380;51.118;4.176;2022-10-16T14:54:48;19.70;99.90
24252;DHT22;12380;51.118;4.176;2022-10-16T14:57:24;19.70;99.90
24252;DHT22;12380;51.118;4.176;2022-10-16T14:59:50;19.70;99.90
24252;DHT22;12380;51.118;4.176;2022-10-16T15:04:42;19.80;99.90
24252;DHT22;12380;51.118;4.176;2022-10-16T15:07:08;19.60;99.90
24252;DHT22;12380;51.118;4.176;2022-10-16T15:09:34;19.40;99.90
24252;DHT22;12380;51.118;4.176;2022-10-16T15:12:00;19.40;99.90
24252;DHT22;12380;51.118;4.176;2022-10-16T15:14:25;19.40;99.90
24252;DHT22;12380;51.118;4.176;2022-10-16T15:16:53;19.60;99.90
24252;DHT22;12380;51.118;4.176;2022-10-16T15:19:19;19.70;99.90
24252;DHT22;12380;51.118;4.176;2022-10-16T15:21:45;19.50;99.90
24252;DHT22;12380;51.118;4.176;2022-10-16T15:24:11;19.70;99.90
24252;DHT22;12380;51.118;4.176;2022-10-16T15:26:37;19.60;99.90
24252;DHT22;12380;51.118;4.176;2022-10-16T15:29:03;19.60;99.90
24252;DHT22;12380;51.118;4.176;2022-10-16T15:31:29;19.40;99.90
24252;DHT22;12380;51.118;4.176;2022-10-16T15:33:55;19.60;99.90
24252;DHT22;12380;51.118;4.176;2022-10-16T15:36:30;19.60;99.90
24252;DHT22;12380;51.118;4.176;2022-10-16T15:38:59;19.80;99.90
24252;DHT22;12380;51.118;4.176;2022-10-16T15:41:25;19.90;99.90
24252;DHT22;12380;51.118;4.176;2022-10-16T15:43:51;20.00;99.90
24252;DHT22;12380;51.118;4.176;2022-10-16T15:46:18;20.00;99.90
24252;DHT22;12380;51.118;4.176;2022-10-16T15:48:44;20.00;99.90
24252;DHT22;12380;51.118;4.176;2022-10-16T15:51:09;20.00;99.90
24252;DHT22;12380;51.118;4.176;2022-10-16T15:53:35;20.00;99.90
24252;DHT22;12380;51.118;4.176;2022-10-16T15:56:01;20.00;99.90
24252;DHT22;12380;51.118;4.176;2022-10-16T15:58:27;20.00;99.90
24252;DHT22;12380;51.118;4.176;2022-10-16T16:00:54;19.90;99.90
24252;DHT22;12380;51.118;4.176;2022-10-16T16:03:21;19.70;99.90
24252;DHT22;12380;51.118;4.176;2022-10-16T16:05:47;19.70;99.90
24252;DHT22;12380;51.118;4.176;2022-10-16T16:08:13;19.60;99.90
24252;DHT22;12380;51.118;4.176;2022-10-16T16:10:38;19.40;99.90
24252;DHT22;12380;51.118;4.176;2022-10-16T16:13:04;19.50;99.90
24252;DHT22;12380;51.118;4.176;2022-10-16T16:15:31;19.40;99.90
24252;DHT22;12380;51.118;4.176;2022-10-16T16:17:59;19.30;99.90
24252;DHT22;12380;51.118;4.176;2022-10-16T16:20:27;19.20;99.90
24252;DHT22;12380;51.118;4.176;2022-10-16T16:22:53;19.10;99.90
24252;DHT22;12380;51.118;4.176;2022-10-16T16:25:19;19.20;99.90
24252;DHT22;12380;51.118;4.176;2022-10-16T16:27:44;19.10;99.90
24252;DHT22;12380;51.118;4.176;2022-10-16T16:30:12;19.00;99.90
24252;DHT22;12380;51.118;4.176;2022-10-16T16:32:38;18.90;99.90
24252;DHT22;12380;51.118;4.176;2022-10-16T16:35:04;18.80;99.90
24252;DHT22;12380;51.118;4.176;2022-10-16T16:37:30;18.70;99.90
24252;DHT22;12380;51.118;4.176;2022-10-16T16:39:56;18.70;99.90
24252;DHT22;12380;51.118;4.176;2022-10-16T16:42:24;18.60;99.90
24252;DHT22;12380;51.118;4.176;2022-10-16T16:44:52;18.70;99.90
24252;DHT22;12380;51.118;4.176;2022-10-16T16:47:18;18.70;99.90
24252;DHT22;12380;51.118;4.176;2022-10-16T16:49:44;18.70;99.90
24252;DHT22;12380;51.118;4.176;2022-10-16T16:52:11;18.60;99.90
24252;DHT22;12380;51.118;4.176;2022-10-16T16:54:37;18.60;99.90
24252;DHT22;12380;51.118;4.176;2022-10-16T16:57:02;18.60;99.90
24252;DHT22;12380;51.118;4.176;2022-10-16T16:59:29;18.60;99.90
24252;DHT22;12380;51.118;4.176;2022-10-16T17:02:00;18.50;99.90
24252;DHT22;12380;51.118;4.176;2022-10-16T17:04:25;18.40;99.90
24252;DHT22;12380;51.118;4.176;2022-10-16T17:06:52;18.40;99.90
24252;DHT22;12380;51.118;4.176;2022-10-16T17:09:18;18.30;99.90
24252;DHT22;12380;51.118;4.176;2022-10-16T17:11:44;18.20;99.90
24252;DHT22;12380;51.118;4.176;2022-10-16T17:14:11;18.20;99.90
24252;DHT22;12380;51.118;4.176;2022-10-16T17:16:39;18.20;99.90
24252;DHT22;12380;51.118;4.176;2022-10-16T17:19:06;18.10;99.90
24252;DHT22;12380;51.118;4.176;2022-10-16T17:21:33;18.00;99.90
24252;DHT22;12380;51.118;4.176;2022-10-16T17:23:59;18.00;99.90
24252;DHT22;12380;51.118;4.176;2022-10-16T17:26:25;18.00;99.90